createdAt,value
2019-04-01T00:00:29.184Z,97.30
2019-04-01T00:02:58.008Z,97.30
2019-04-01T00:05:27.083Z,98.00
2019-04-01T00:07:56.083Z,98.50
2019-04-01T00:10:25.036Z,98.70
2019-04-01T00:12:53.939Z,99.00
2019-04-01T00:15:22.857Z,99.00
2019-04-01T00:17:51.799Z,99.40
2019-04-01T00:20:20.623Z,99.70
2019-04-01T00:22:49.627Z,99.70
2019-04-01T00:25:18.951Z,99.70
2019-04-01T00:27:47.833Z,99.80
2019-04-01T00:30:16.837Z,99.90
2019-04-01T00:32:45.774Z,99.90
2019-04-01T00:35:14.693Z,99.90
2019-04-01T00:37:43.613Z,99.90
2019-04-01T00:40:14.107Z,99.90
2019-04-01T00:42:47.522Z,99.90
2019-04-01T00:45:17.993Z,99.90
2019-04-01T00:47:46.882Z,99.90
2019-04-01T00:50:15.836Z,99.90
2019-04-01T00:52:44.751Z,99.90
2019-04-01T00:55:13.656Z,99.90
2019-04-01T00:57:42.555Z,99.90
2019-04-01T01:00:12.206Z,99.90
2019-04-01T01:02:41.080Z,99.90
2019-04-01T01:05:09.930Z,99.90
2019-04-01T01:07:38.913Z,99.90
2019-04-01T01:10:08.657Z,99.90
2019-04-01T01:12:37.594Z,99.90
2019-04-01T01:15:07.479Z,99.90
2019-04-01T01:17:36.417Z,99.90
2019-04-01T01:20:06.896Z,99.90
2019-04-01T01:22:35.845Z,99.90
2019-04-01T01:25:05.033Z,99.90
2019-04-01T01:27:33.969Z,99.90
2019-04-01T01:30:03.055Z,99.90
2019-04-01T01:32:31.994Z,99.90
2019-04-01T01:35:00.914Z,99.90
2019-04-01T01:37:29.808Z,99.90
2019-04-01T01:39:58.696Z,99.90
2019-04-01T01:42:27.634Z,99.90
2019-04-01T01:44:56.548Z,99.90
2019-04-01T01:47:27.336Z,99.90
2019-04-01T01:49:56.401Z,99.90
2019-04-01T01:52:25.257Z,99.90
2019-04-01T01:54:54.233Z,99.90
2019-04-01T01:57:23.123Z,99.90
2019-04-01T01:59:52.038Z,99.90
2019-04-01T02:02:20.960Z,99.90
2019-04-01T02:04:49.879Z,99.90
2019-04-01T02:07:26.743Z,99.90
2019-04-01T02:09:55.653Z,99.90
2019-04-01T02:12:24.636Z,99.90
2019-04-01T02:14:53.635Z,99.90
2019-04-01T02:17:22.529Z,99.90
2019-04-01T02:19:51.404Z,99.90
2019-04-01T02:22:20.311Z,99.90
2019-04-01T02:24:49.172Z,99.90
2019-04-01T02:27:18.067Z,99.90
2019-04-01T02:29:46.990Z,99.90
2019-04-01T02:32:15.919Z,99.90
2019-04-01T02:34:44.772Z,99.90
2019-04-01T02:37:13.660Z,99.90
2019-04-01T02:39:42.594Z,99.90
2019-04-01T02:42:11.433Z,99.90
2019-04-01T02:44:40.337Z,99.90
2019-04-01T02:47:09.178Z,99.90
2019-04-01T02:49:38.103Z,99.90
2019-04-01T02:52:06.970Z,99.90
2019-04-01T02:54:35.909Z,99.90
2019-04-01T02:57:04.818Z,99.90
2019-04-01T02:59:33.780Z,99.90
2019-04-01T03:02:02.680Z,99.90
2019-04-01T03:04:31.618Z,99.90
2019-04-01T03:07:00.471Z,99.90
2019-04-01T03:09:29.379Z,99.90
2019-04-01T03:11:58.294Z,99.90
2019-04-01T03:14:27.233Z,99.90
2019-04-01T03:16:56.124Z,99.90
2019-04-01T03:19:25.044Z,99.90
2019-04-01T03:21:54.050Z,99.90
2019-04-01T03:24:22.937Z,99.90
2019-04-01T03:26:51.848Z,99.90
2019-04-01T03:29:20.719Z,99.90
2019-04-01T03:31:49.649Z,99.90
2019-04-01T03:34:18.479Z,99.90
2019-04-01T03:36:49.232Z,99.90
2019-04-01T03:39:18.237Z,99.90
2019-04-01T03:41:47.176Z,99.90
2019-04-01T03:44:16.114Z,99.90
2019-04-01T03:46:45.024Z,99.90
2019-04-01T03:49:13.871Z,99.90
2019-04-01T03:51:48.246Z,99.90
2019-04-01T03:54:17.129Z,99.90
2019-04-01T03:56:46.020Z,99.90
2019-04-01T03:59:14.887Z,99.90
2019-04-01T04:01:43.830Z,99.90
2019-04-01T04:04:12.738Z,99.90
2019-04-01T04:06:41.634Z,99.90
2019-04-01T04:09:10.493Z,99.90
2019-04-01T04:11:39.392Z,99.90
2019-04-01T04:14:08.249Z,99.90
2019-04-01T04:16:37.201Z,99.90
2019-04-01T04:19:06.052Z,99.90
2019-04-01T04:21:34.987Z,99.90
2019-04-01T04:24:03.888Z,99.90
2019-04-01T04:26:32.825Z,99.90
2019-04-01T04:29:01.774Z,99.90
2019-04-01T04:31:30.679Z,99.90
2019-04-01T04:33:59.628Z,99.90
2019-04-01T04:36:28.498Z,99.90
2019-04-01T04:38:57.425Z,99.90
2019-04-01T04:41:26.409Z,99.90
2019-04-01T04:43:55.308Z,99.90
2019-04-01T04:46:33.746Z,99.90
2019-04-01T04:49:02.576Z,99.90
2019-04-01T04:51:31.473Z,99.90
2019-04-01T04:54:00.417Z,99.90
2019-04-01T04:56:29.330Z,99.90
2019-04-01T04:59:06.440Z,99.90
2019-04-01T05:01:35.411Z,99.90
2019-04-01T05:04:04.367Z,99.90
2019-04-01T05:06:33.223Z,99.90
2019-04-01T05:09:02.159Z,99.90
2019-04-01T05:11:31.048Z,99.90
2019-04-01T05:13:59.953Z,99.90
2019-04-01T05:16:28.863Z,99.90
2019-04-01T05:18:57.815Z,99.90
2019-04-01T05:21:27.657Z,99.90
2019-04-01T05:23:57.170Z,99.90
2019-04-01T05:26:26.715Z,99.90
2019-04-01T05:28:56.575Z,99.90
2019-04-01T05:31:27.952Z,99.90
2019-04-01T05:33:58.833Z,99.90
2019-04-01T05:36:27.907Z,99.90
2019-04-01T05:38:57.377Z,99.90
2019-04-01T05:41:26.409Z,99.90
2019-04-01T05:43:55.397Z,99.90
2019-04-01T05:46:24.352Z,99.90
2019-04-01T05:48:53.461Z,99.90
2019-04-01T05:51:22.343Z,99.90
2019-04-01T05:53:51.283Z,99.90
2019-04-01T05:56:20.216Z,99.90
2019-04-01T05:58:49.129Z,99.90
2019-04-01T06:01:19.631Z,99.90
2019-04-01T06:03:48.493Z,99.90
2019-04-01T06:06:17.432Z,99.90
2019-04-01T06:08:46.520Z,99.90
2019-04-01T06:11:15.445Z,99.90
2019-04-01T06:13:44.389Z,99.90
2019-04-01T06:16:13.297Z,99.90
2019-04-01T06:18:42.188Z,99.90
2019-04-01T06:21:11.130Z,99.90
2019-04-01T06:23:40.153Z,99.90
2019-04-01T06:26:09.423Z,99.90
2019-04-01T06:28:38.348Z,99.90
2019-04-01T06:31:07.796Z,99.90
2019-04-01T06:33:36.716Z,99.90
2019-04-01T06:36:05.641Z,99.90
2019-04-01T06:38:34.555Z,99.90
2019-04-01T06:41:03.436Z,99.90
2019-04-01T06:43:32.382Z,99.90
2019-04-01T06:46:01.242Z,99.90
2019-04-01T06:48:30.294Z,99.90
2019-04-01T06:50:59.168Z,99.90
2019-04-01T06:53:28.088Z,99.90
2019-04-01T06:55:57.038Z,99.90
2019-04-01T06:58:25.973Z,99.90
2019-04-01T07:00:54.809Z,99.90
2019-04-01T07:03:24.730Z,99.90
2019-04-01T07:05:53.978Z,99.90
2019-04-01T07:08:22.928Z,99.90
2019-04-01T07:10:51.809Z,99.80
2019-04-01T07:13:20.770Z,99.10
2019-04-01T07:15:49.635Z,98.30
2019-04-01T07:18:18.678Z,97.50
2019-04-01T07:20:47.549Z,97.10
2019-04-01T07:23:16.410Z,97.40
2019-04-01T07:25:45.334Z,96.50
2019-04-01T07:28:14.373Z,96.20
2019-04-01T07:30:43.384Z,95.10
2019-04-01T07:33:12.263Z,94.10
2019-04-01T07:35:41.183Z,92.70
2019-04-01T07:38:10.252Z,92.00
2019-04-01T07:40:39.153Z,91.80
2019-04-01T07:43:08.072Z,91.80
2019-04-01T07:45:36.979Z,90.20
2019-04-01T07:48:05.897Z,90.10
2019-04-01T07:50:34.855Z,88.70
2019-04-01T07:53:03.858Z,85.30
2019-04-01T07:55:32.804Z,85.10
2019-04-01T07:58:01.837Z,84.40
2019-04-01T08:00:30.702Z,80.00
2019-04-01T08:02:59.676Z,80.80
2019-04-01T08:05:28.736Z,78.80
2019-04-01T08:07:59.622Z,79.30
2019-04-01T08:10:28.576Z,77.30
2019-04-01T08:12:57.478Z,75.10
2019-04-01T08:15:26.343Z,75.50
2019-04-01T08:17:55.397Z,71.00
2019-04-01T08:20:24.311Z,69.60
2019-04-01T08:22:53.203Z,66.60
2019-04-01T08:25:22.168Z,66.20
2019-04-01T08:27:51.107Z,69.40
2019-04-01T08:30:20.272Z,67.30
2019-04-01T08:32:49.241Z,62.10
2019-04-01T08:35:18.174Z,61.20
2019-04-01T08:37:47.056Z,58.80
2019-04-01T08:40:16.014Z,57.90
2019-04-01T08:42:44.914Z,58.20
2019-04-01T08:45:14.020Z,56.20
2019-04-01T08:47:42.875Z,58.00
2019-04-01T08:50:11.931Z,56.70
2019-04-01T08:52:40.868Z,55.50
2019-04-01T08:55:09.923Z,53.40
2019-04-01T08:57:38.855Z,53.90
2019-04-01T09:00:08.668Z,54.70
2019-04-01T09:02:37.541Z,53.60
2019-04-01T09:05:07.454Z,53.70
2019-04-01T09:07:36.412Z,52.00
2019-04-01T09:10:06.364Z,52.10
2019-04-01T09:12:35.788Z,51.70
2019-04-01T09:15:06.167Z,52.90
2019-04-01T09:17:35.104Z,53.00
2019-04-01T09:20:04.350Z,50.70
2019-04-01T09:22:33.216Z,51.00
2019-04-01T09:25:02.092Z,52.40
2019-04-01T09:27:31.011Z,50.60
2019-04-01T09:29:59.931Z,50.20
2019-04-01T09:32:28.952Z,49.20
2019-04-01T09:34:57.771Z,48.80
2019-04-01T09:37:26.673Z,48.60
2019-04-01T09:39:55.614Z,48.90
2019-04-01T09:42:24.594Z,50.10
2019-04-01T09:44:54.716Z,49.10
2019-04-01T09:47:23.761Z,47.50
2019-04-01T09:49:52.662Z,49.40
2019-04-01T09:52:21.580Z,47.30
2019-04-01T09:54:50.459Z,47.70
2019-04-01T09:57:19.427Z,47.40
2019-04-01T09:59:48.325Z,46.40
2019-04-01T10:02:30.828Z,46.80
2019-04-01T10:04:47.880Z,46.90
2019-04-01T10:07:16.843Z,47.20
2019-04-01T10:09:45.798Z,46.70
2019-04-01T10:12:14.672Z,45.30
2019-04-01T10:14:43.598Z,45.20
2019-04-01T10:17:12.474Z,45.50
2019-04-01T10:19:41.353Z,45.00
2019-04-01T10:22:10.269Z,44.40
2019-04-01T10:24:39.238Z,43.50
2019-04-01T10:27:08.371Z,44.80
2019-04-01T10:29:37.357Z,44.00
2019-04-01T10:32:08.967Z,45.30
2019-04-01T10:34:37.932Z,45.80
2019-04-01T10:37:06.946Z,44.70
2019-04-01T10:39:35.919Z,43.00
2019-04-01T10:42:04.896Z,42.30
2019-04-01T10:44:33.795Z,42.10
2019-04-01T10:47:02.882Z,41.90
2019-04-01T10:49:32.284Z,43.20
2019-04-01T10:52:01.558Z,40.90
2019-04-01T10:54:30.656Z,42.40
2019-04-01T10:56:59.735Z,40.70
2019-04-01T10:59:28.708Z,40.80
2019-04-01T11:01:57.733Z,42.20
2019-04-01T11:04:26.607Z,42.20
2019-04-01T11:06:55.594Z,41.10
2019-04-01T11:09:37.642Z,40.70
2019-04-01T11:11:55.162Z,41.60
2019-04-01T11:14:24.823Z,40.60
2019-04-01T11:16:53.765Z,39.30
2019-04-01T11:19:22.662Z,40.10
2019-04-01T11:21:51.593Z,39.50
2019-04-01T11:24:20.456Z,39.70
2019-04-01T11:26:49.397Z,39.00
2019-04-01T11:29:18.272Z,39.40
2019-04-01T11:31:47.181Z,39.30
2019-04-01T11:34:16.141Z,40.40
2019-04-01T11:36:45.189Z,38.90
2019-04-01T11:39:14.382Z,39.00
2019-04-01T11:41:43.323Z,39.30
2019-04-01T11:44:12.274Z,38.90
2019-04-01T11:46:41.343Z,37.30
2019-04-01T11:49:10.354Z,38.00
2019-04-01T11:51:40.211Z,37.80
2019-04-01T11:54:10.221Z,37.00
2019-04-01T11:56:39.363Z,36.90
2019-04-01T11:59:08.468Z,37.20
2019-04-01T12:01:37.759Z,37.50
2019-04-01T12:04:06.603Z,37.40
2019-04-01T12:06:35.545Z,38.20
2019-04-01T12:09:06.316Z,36.70
2019-04-01T12:11:35.437Z,36.90
2019-04-01T12:14:05.252Z,36.80
2019-04-01T12:16:34.435Z,37.50
2019-04-01T12:19:03.381Z,37.50
2019-04-01T12:21:32.239Z,37.20
2019-04-01T12:24:01.177Z,36.70
2019-04-01T12:26:30.058Z,36.00
2019-04-01T12:28:58.934Z,36.00
2019-04-01T12:31:27.871Z,35.00
2019-04-01T12:33:56.806Z,35.70
2019-04-01T12:36:25.733Z,35.40
2019-04-01T12:38:54.705Z,35.30
2019-04-01T12:41:23.636Z,35.80
2019-04-01T12:43:52.470Z,35.00
2019-04-01T12:46:21.347Z,35.50
2019-04-01T12:48:50.279Z,36.30
2019-04-01T12:51:19.296Z,34.80
2019-04-01T12:53:52.699Z,34.50
2019-04-01T12:56:21.760Z,33.90
2019-04-01T12:58:50.663Z,34.50
2019-04-01T13:01:20.557Z,33.70
2019-04-01T13:03:49.827Z,33.70
2019-04-01T13:06:18.819Z,31.80
2019-04-01T13:08:47.751Z,31.00
2019-04-01T13:11:16.704Z,31.70
2019-04-01T13:13:48.705Z,32.60
2019-04-01T13:16:16.153Z,31.90
2019-04-01T13:18:45.091Z,32.10
2019-04-01T13:21:14.023Z,31.60
2019-04-01T13:23:42.930Z,31.60
2019-04-01T13:26:11.868Z,31.10
2019-04-01T13:28:42.521Z,30.90
2019-04-01T13:31:11.490Z,30.10
2019-04-01T13:33:40.453Z,29.90
2019-04-01T13:36:09.308Z,29.70
2019-04-01T13:38:38.300Z,29.80
2019-04-01T13:41:07.281Z,28.30
2019-04-01T13:43:36.138Z,28.60
2019-04-01T13:46:05.063Z,28.10
2019-04-01T13:48:33.963Z,27.70
2019-04-01T13:51:02.938Z,27.50
2019-04-01T13:53:31.813Z,27.40
2019-04-01T13:56:00.776Z,27.00
2019-04-01T13:58:30.542Z,27.30
2019-04-01T14:00:59.572Z,27.10
2019-04-01T14:03:29.155Z,26.50
2019-04-01T14:05:58.341Z,27.00
2019-04-01T14:08:27.267Z,26.80
2019-04-01T14:10:56.126Z,26.80
2019-04-01T14:13:25.139Z,26.70
2019-04-01T14:15:54.018Z,26.70
2019-04-01T14:18:23.895Z,26.30
2019-04-01T14:20:52.794Z,26.70
2019-04-01T14:23:23.376Z,28.10
2019-04-01T14:25:52.444Z,29.80
2019-04-01T14:28:21.356Z,30.90
2019-04-01T14:30:50.243Z,32.50
2019-04-01T14:33:19.099Z,32.90
2019-04-01T14:35:48.038Z,34.10
2019-04-01T14:38:16.881Z,34.10
2019-04-01T14:40:46.086Z,34.70
2019-04-01T14:43:14.985Z,35.20
2019-04-01T14:45:43.920Z,35.70
2019-04-01T14:48:12.843Z,35.60
2019-04-01T14:50:41.761Z,35.30
2019-04-01T14:53:10.692Z,35.10
2019-04-01T14:55:39.560Z,34.40
2019-04-01T14:58:08.473Z,33.70
2019-04-01T15:00:37.397Z,32.90
2019-04-01T15:03:06.505Z,32.20
2019-04-01T15:05:35.446Z,32.20
2019-04-01T15:08:04.339Z,31.90
2019-04-01T15:10:33.388Z,31.30
2019-04-01T15:13:05.682Z,31.50
2019-04-01T15:15:32.911Z,31.90
2019-04-01T15:18:01.876Z,32.00
2019-04-01T15:20:30.864Z,32.70
2019-04-01T15:22:59.820Z,33.80
2019-04-01T15:25:28.678Z,34.60
2019-04-01T15:27:58.381Z,35.30
2019-04-01T15:30:27.628Z,35.50
2019-04-01T15:32:57.020Z,36.30
2019-04-01T15:35:25.940Z,36.00
2019-04-01T15:37:54.831Z,36.20
2019-04-01T15:40:23.884Z,36.80
2019-04-01T15:42:52.729Z,36.60
2019-04-01T15:45:21.659Z,36.90
2019-04-01T15:47:50.614Z,37.10
2019-04-01T15:50:28.213Z,37.30
2019-04-01T15:52:50.080Z,37.10
2019-04-01T15:55:19.029Z,37.30
2019-04-01T15:57:47.963Z,37.70
2019-04-01T16:00:19.519Z,37.50
2019-04-01T16:02:47.962Z,37.70
2019-04-01T16:05:16.863Z,38.10
2019-04-01T16:07:45.784Z,37.80
2019-04-01T16:10:14.927Z,38.60
2019-04-01T16:12:45.104Z,38.80
2019-04-01T16:15:14.418Z,39.30
2019-04-01T16:17:43.448Z,39.50
2019-04-01T16:20:12.586Z,39.90
2019-04-01T16:22:43.686Z,39.80
2019-04-01T16:25:13.212Z,40.10
2019-04-01T16:27:43.041Z,39.90
2019-04-01T16:30:12.366Z,40.10
2019-04-01T16:32:41.291Z,40.00
2019-04-01T16:35:10.496Z,40.20
2019-04-01T16:37:39.377Z,40.20
2019-04-01T16:40:09.088Z,40.40
2019-04-01T16:42:37.952Z,40.60
2019-04-01T16:45:08.402Z,41.30
2019-04-01T16:47:37.368Z,41.10
2019-04-01T16:50:08.486Z,41.40
2019-04-01T16:52:37.563Z,41.50
2019-04-01T16:55:07.899Z,41.90
2019-04-01T16:57:36.789Z,42.60
2019-04-01T17:00:10.295Z,43.40
2019-04-01T17:02:39.255Z,44.70
2019-04-01T17:05:09.207Z,45.60
2019-04-01T17:07:38.263Z,46.20
2019-04-01T17:10:07.703Z,47.00
2019-04-01T17:12:36.606Z,47.30
2019-04-01T17:15:06.444Z,48.50
2019-04-01T17:17:35.377Z,49.10
2019-04-01T17:20:06.262Z,50.00
2019-04-01T17:22:35.234Z,50.70
2019-04-01T17:25:05.929Z,51.30
2019-04-01T17:27:35.033Z,52.50
2019-04-01T17:30:05.485Z,53.80
2019-04-01T17:32:34.597Z,55.50
2019-04-01T17:35:04.106Z,57.30
2019-04-01T17:37:33.078Z,58.90
2019-04-01T17:40:04.024Z,63.30
2019-04-01T17:42:33.152Z,66.10
2019-04-01T17:45:11.342Z,68.40
2019-04-01T17:47:40.832Z,70.10
2019-04-01T17:50:10.032Z,71.40
2019-04-01T17:52:38.969Z,71.60
2019-04-01T17:55:08.017Z,72.20
2019-04-01T17:57:37.156Z,72.60
2019-04-01T18:00:16.652Z,73.00
2019-04-01T18:02:45.817Z,73.40
2019-04-01T18:05:18.317Z,74.00
2019-04-01T18:07:47.398Z,75.30
2019-04-01T18:10:16.746Z,76.40
2019-04-01T18:12:45.866Z,77.40
2019-04-01T18:15:16.150Z,78.00
2019-04-01T18:17:45.489Z,78.00
2019-04-01T18:20:15.018Z,78.40
2019-04-01T18:22:44.057Z,79.60
2019-04-01T18:25:13.797Z,80.60
2019-04-01T18:27:44.232Z,80.70
2019-04-01T18:30:14.264Z,80.60
2019-04-01T18:32:43.184Z,81.40
2019-04-01T18:35:12.519Z,81.90
2019-04-01T18:37:41.494Z,82.70
2019-04-01T18:40:12.397Z,82.40
2019-04-01T18:42:41.391Z,82.50
2019-04-01T18:45:10.988Z,82.70
2019-04-01T18:47:40.144Z,83.50
2019-04-01T18:50:09.377Z,83.70
2019-04-01T18:52:38.621Z,84.80
2019-04-01T18:55:09.039Z,85.00
2019-04-01T18:57:39.748Z,85.20
2019-04-01T19:00:12.653Z,85.30
2019-04-01T19:02:42.268Z,86.00
2019-04-01T19:05:11.897Z,86.40
2019-04-01T19:07:41.146Z,86.60
2019-04-01T19:10:11.314Z,86.80
2019-04-01T19:12:42.418Z,87.80
2019-04-01T19:15:11.737Z,88.80
2019-04-01T19:17:40.682Z,89.10
2019-04-01T19:20:11.205Z,89.40
2019-04-01T19:22:40.582Z,89.90
2019-04-01T19:25:09.991Z,90.00
2019-04-01T19:27:38.928Z,90.20
2019-04-01T19:30:09.005Z,90.80
2019-04-01T19:32:38.379Z,90.80
2019-04-01T19:35:09.545Z,90.90
2019-04-01T19:37:38.978Z,90.80
2019-04-01T19:40:08.730Z,90.60
2019-04-01T19:42:39.423Z,90.90
2019-04-01T19:45:12.407Z,91.20
2019-04-01T19:47:41.431Z,91.20
2019-04-01T19:50:11.159Z,91.10
2019-04-01T19:52:40.205Z,91.30
2019-04-01T19:55:09.279Z,91.70
2019-04-01T19:57:38.196Z,91.70
2019-04-01T20:00:08.553Z,91.90
2019-04-01T20:02:47.086Z,92.20
2019-04-01T20:05:16.211Z,92.70
2019-04-01T20:07:45.186Z,93.40
2019-04-01T20:10:14.624Z,93.30
2019-04-01T20:12:45.143Z,93.10
2019-04-01T20:15:14.207Z,93.30
2019-04-01T20:17:43.334Z,93.60
2019-04-01T20:20:14.609Z,93.60
2019-04-01T20:22:43.258Z,93.90
2019-04-01T20:25:12.232Z,93.40
2019-04-01T20:27:41.132Z,93.60
2019-04-01T20:30:11.040Z,94.00
2019-04-01T20:32:39.907Z,94.30
2019-04-01T20:35:22.388Z,94.20
2019-04-01T20:37:40.517Z,94.10
2019-04-01T20:40:10.279Z,94.10
2019-04-01T20:42:39.237Z,94.20
2019-04-01T20:45:10.905Z,94.20
2019-04-01T20:47:39.666Z,94.20
2019-04-01T20:50:10.677Z,94.10
2019-04-01T20:52:39.621Z,94.40
2019-04-01T20:55:08.779Z,94.70
2019-04-01T20:57:37.669Z,94.20
2019-04-01T21:00:09.541Z,94.50
2019-04-01T21:02:38.955Z,94.30
2019-04-01T21:05:09.327Z,94.30
2019-04-01T21:07:38.181Z,94.30
2019-04-01T21:10:10.718Z,94.60
2019-04-01T21:12:39.647Z,94.60
2019-04-01T21:15:09.968Z,94.60
2019-04-01T21:17:38.876Z,94.80
2019-04-01T21:20:08.283Z,95.00
2019-04-01T21:22:37.374Z,95.20
2019-04-01T21:25:07.429Z,95.20
2019-04-01T21:27:36.296Z,95.50
2019-04-01T21:30:10.163Z,95.90
2019-04-01T21:32:39.137Z,95.40
2019-04-01T21:35:09.220Z,95.60
2019-04-01T21:37:38.596Z,95.60
2019-04-01T21:40:09.023Z,96.20
2019-04-01T21:42:37.983Z,96.20
2019-04-01T21:45:08.557Z,96.20
2019-04-01T21:47:37.428Z,96.40
2019-04-01T21:50:08.113Z,96.50
2019-04-01T21:52:37.287Z,96.30
2019-04-01T21:55:08.029Z,96.20
2019-04-01T21:57:36.990Z,96.40
2019-04-01T22:00:17.658Z,96.10
2019-04-01T22:02:45.661Z,96.30
2019-04-01T22:05:14.665Z,96.00
2019-04-01T22:07:43.539Z,96.60
2019-04-01T22:10:14.066Z,96.80
2019-04-01T22:12:42.937Z,96.60
2019-04-01T22:15:12.064Z,96.40
2019-04-01T22:17:40.965Z,96.70
2019-04-01T22:20:10.768Z,97.10
2019-04-01T22:22:44.827Z,97.00
2019-04-01T22:25:13.884Z,97.20
2019-04-01T22:27:42.770Z,97.30
2019-04-01T22:30:12.451Z,97.00
2019-04-01T22:32:42.128Z,96.90
2019-04-01T22:35:11.102Z,97.20
2019-04-01T22:37:39.998Z,97.40
2019-04-01T22:40:09.232Z,97.20
2019-04-01T22:42:38.075Z,97.20
2019-04-01T22:45:08.324Z,96.90
2019-04-01T22:47:37.134Z,98.00
2019-04-01T22:50:07.853Z,97.50
2019-04-01T22:52:36.782Z,98.10
2019-04-01T22:55:06.777Z,97.40
2019-04-01T22:57:35.694Z,97.50
2019-04-01T23:00:05.613Z,97.50
2019-04-01T23:02:34.494Z,97.50
2019-04-01T23:05:03.372Z,97.70
2019-04-01T23:07:33.046Z,97.80
2019-04-01T23:10:02.166Z,97.90
2019-04-01T23:12:31.062Z,97.80
2019-04-01T23:14:59.952Z,98.10
2019-04-01T23:17:28.805Z,98.10
2019-04-01T23:19:57.734Z,98.40
2019-04-01T23:22:26.663Z,98.00
2019-04-01T23:24:57.240Z,98.10
2019-04-01T23:27:26.208Z,98.40
2019-04-01T23:29:55.136Z,98.90
2019-04-01T23:32:24.194Z,98.80
2019-04-01T23:34:53.117Z,98.70
2019-04-01T23:37:21.980Z,98.90
2019-04-01T23:39:50.882Z,98.80
2019-04-01T23:42:19.811Z,98.80
2019-04-01T23:44:48.744Z,99.10
2019-04-01T23:47:17.676Z,99.40
2019-04-01T23:49:46.520Z,99.60
2019-04-01T23:52:15.411Z,99.40
2019-04-01T23:54:44.305Z,99.40
2019-04-01T23:57:13.203Z,99.60
2019-04-01T23:59:42.153Z,99.90
